Time;durP1;ratioP1;P1;durP2;ratioP2;P2;SDS_P1;SDS_P2;PMS_P1;PMS_P2;Temp;Humidity;BMP_temperature;BMP_pressure;BME280_temperature;BME280_humidity;BME280_pressure;Samples;Min_cycle;Max_cycle;Signal;HPM_P1;HPM_P2
2022/09/30 00:00:55;;;;;;;;;;;;;;;;;;5029104;28;19959;-59
2022/09/30 00:03:20;;;;;;;;;;;;;;;;;;5028754;28;19955;-59
2022/09/30 00:05:46;;;;;;;;;;;;;;;;;;5028140;28;19964;-60
2022/09/30 00:08:12;;;;;;;;;;;;;;;;;;5029212;28;20071;-61
2022/09/30 00:10:38;;;;;;;;;;;;;;;;;;5034318;28;19996;-60
2022/09/30 00:13:04;;;;;;;;;;;;;;;;;;5032324;28;19917;-61
2022/09/30 00:15:31;;;;;;;;;;;;;;;;;;5029305;28;20442;-60
2022/09/30 00:17:58;;;;;;;;;;;;;;;;;;5032476;28;20371;-60
2022/09/30 00:20:24;;;;;;;;;;;;;;;;;;5034462;28;20380;-60
2022/09/30 00:22:50;;;;;;;;;;;;;;;;;;5029272;28;20084;-60
2022/09/30 00:25:16;;;;;;;;;;;;;;;;;;5034290;28;20403;-60
2022/09/30 00:27:42;;;;;;;;;;;;;;;;;;5026179;28;19921;-60
2022/09/30 00:30:08;;;;;;;;;;;;;;;;;;5023683;28;19913;-60
2022/09/30 00:32:34;;;;;;;;;;;;;;;;;;5028792;28;19948;-60
2022/09/30 00:35:00;;;;;;;;;;;;;;;;;;5033870;28;20358;-60
2022/09/30 00:37:26;;;;;;;;;;;;;;;;;;5030294;28;19915;-60
2022/09/30 00:39:52;;;;;;;;;;;;;;;;;;5026702;28;19952;-60
2022/09/30 00:42:18;;;;;;;;;;;;;;;;;;5032018;28;19920;-61
2022/09/30 00:44:44;;;;;;;;;;;;;;;;;;5021219;28;19905;-60
2022/09/30 00:47:10;;;;;;;;;;;;;;;;;;5033046;28;19916;-61
2022/09/30 00:49:36;;;;;;;;;;;;;;;;;;5032371;28;19971;-59
2022/09/30 00:52:02;;;;;;;;;;;;;;;;;;5030973;28;20399;-60
2022/09/30 00:54:28;;;;;;;;;;;;;;;;;;5025236;28;19909;-60
2022/09/30 00:56:53;;;;;;;;;;;;;;;;;;5028344;28;20283;-61
2022/09/30 00:59:19;;;;;;;;;;;;;;;;;;5031542;28;19919;-60
2022/09/30 01:01:45;;;;;;;;;;;;;;;;;;5025564;28;19913;-65
2022/09/30 01:04:11;;;;;;;;;;;;;;;;;;5027749;28;20007;-65
2022/09/30 01:06:37;;;;;;;;;;;;;;;;;;5023703;28;19913;-65
2022/09/30 01:09:03;;;;;;;;;;;;;;;;;;5026855;28;19917;-65
2022/09/30 01:11:29;;;;;;;;;;;;;;;;;;5020302;28;20008;-65
2022/09/30 01:13:55;;;;;;;;;;;;;;;;;;5029381;28;19913;-65
2022/09/30 01:16:21;;;;;;;;;;;;;;;;;;5014792;28;19913;-65
2022/09/30 01:18:46;;;;;;;;;;;;;;;;;;5032435;28;19948;-65
2022/09/30 01:21:12;;;;;;;;;;;;;;;;;;5028442;28;19917;-64
2022/09/30 01:23:38;;;;;;;;;;;;;;;;;;5031207;28;20386;-65
2022/09/30 01:26:04;;;;;;;;;;;;;;;;;;5031023;28;20011;-65
2022/09/30 01:28:30;;;;;;;;;;;;;;;;;;5027902;28;19971;-64
2022/09/30 01:30:56;;;;;;;;;;;;;;;;;;5028955;28;20490;-64
2022/09/30 01:33:22;;;;;;;;;;;;;;;;;;5029300;28;19913;-64
2022/09/30 01:35:49;;;;;;;;;;;;;;;;;;5010237;28;20668;-64
2022/09/30 01:38:15;;;;;;;;;;;;;;;;;;5013301;28;20335;-64
2022/09/30 01:40:41;;;;;;;;;;;;;;;;;;5030725;28;19913;-65
2022/09/30 01:43:09;;;;;;;;;;;;;;;;;;5031092;28;20400;-65
2022/09/30 01:45:36;;;;;;;;;;;;;;;;;;5029261;28;19913;-64
2022/09/30 01:48:02;;;;;;;;;;;;;;;;;;5030802;28;19919;-65
2022/09/30 01:50:28;;;;;;;;;;;;;;;;;;5028754;28;19999;-64
2022/09/30 01:52:54;;;;;;;;;;;;;;;;;;5018286;28;19916;-64
2022/09/30 01:55:20;;;;;;;;;;;;;;;;;;5031586;28;19916;-65
2022/09/30 01:57:46;;;;;;;;;;;;;;;;;;5023288;28;20475;-65
2022/09/30 02:00:12;;;;;;;;;;;;;;;;;;5027390;28;19909;-64
2022/09/30 02:02:40;;;;;;;;;;;;;;;;;;5011388;28;19909;-65
2022/09/30 02:05:06;;;;;;;;;;;;;;;;;;5029200;28;19905;-65
2022/09/30 02:07:32;;;;;;;;;;;;;;;;;;5028758;28;20009;-65
2022/09/30 02:09:58;;;;;;;;;;;;;;;;;;5031053;28;20333;-64
2022/09/30 02:12:23;;;;;;;;;;;;;;;;;;5017196;28;19999;-64
2022/09/30 02:14:49;;;;;;;;;;;;;;;;;;5028909;28;19923;-64
2022/09/30 02:17:15;;;;;;;;;;;;;;;;;;5028437;28;19968;-65
2022/09/30 02:19:41;;;;;;;;;;;;;;;;;;5023580;28;19958;-64
2022/09/30 02:22:07;;;;;;;;;;;;;;;;;;5020158;28;19913;-64
2022/09/30 02:24:35;;;;;;;;;;;;;;;;;;5028377;28;19905;-65
2022/09/30 02:27:01;;;;;;;;;;;;;;;;;;5023725;28;20415;-64
2022/09/30 02:29:27;;;;;;;;;;;;;;;;;;5028970;28;19905;-65
2022/09/30 02:31:53;;;;;;;;;;;;;;;;;;5027956;28;19963;-64
2022/09/30 02:34:19;;;;;;;;;;;;;;;;;;5030371;28;19941;-65
2022/09/30 02:36:45;;;;;;;;;;;;;;;;;;5013429;28;20433;-65
2022/09/30 02:39:11;;;;;;;;;;;;;;;;;;5021678;28;19971;-64
2022/09/30 02:41:37;;;;;;;;;;;;;;;;;;5026255;28;19944;-64
2022/09/30 02:44:03;;;;;;;;;;;;;;;;;;5014516;28;19909;-65
2022/09/30 02:46:29;;;;;;;;;;;;;;;;;;5029902;28;19959;-65
2022/09/30 02:48:55;;;;;;;;;;;;;;;;;;5030086;28;19971;-64
2022/09/30 02:51:20;;;;;;;;;;;;;;;;;;5025210;28;19909;-64
2022/09/30 02:53:46;;;;;;;;;;;;;;;;;;5028880;28;19909;-64
2022/09/30 02:56:12;;;;;;;;;;;;;;;;;;5029354;28;19963;-64
2022/09/30 02:58:39;;;;;;;;;;;;;;;;;;5031304;28;19909;-65
2022/09/30 03:01:05;;;;;;;;;;;;;;;;;;5028267;28;19906;-64
2022/09/30 03:03:30;;;;;;;;;;;;;;;;;;5026498;28;19939;-64
2022/09/30 03:05:56;;;;;;;;;;;;;;;;;;5022953;28;19913;-65
2022/09/30 03:08:22;;;;;;;;;;;;;;;;;;5021018;28;20018;-64
2022/09/30 03:10:49;;;;;;;;;;;;;;;;;;5019547;28;19984;-64
2022/09/30 03:13:15;;;;;;;;;;;;;;;;;;5029893;28;20356;-64
2022/09/30 03:15:41;;;;;;;;;;;;;;;;;;5031121;28;19906;-64
2022/09/30 03:18:08;;;;;;;;;;;;;;;;;;5029239;28;20007;-65
2022/09/30 03:20:34;;;;;;;;;;;;;;;;;;5023744;28;19967;-65
2022/09/30 03:22:59;;;;;;;;;;;;;;;;;;5018562;28;19909;-65
2022/09/30 03:25:25;;;;;;;;;;;;;;;;;;5029733;28;19915;-65
2022/09/30 03:27:51;;;;;;;;;;;;;;;;;;5011256;28;19950;-65
2022/09/30 03:30:17;;;;;;;;;;;;;;;;;;5019012;28;19911;-64
2022/09/30 03:32:43;;;;;;;;;;;;;;;;;;5028580;28;19952;-64
2022/09/30 03:35:09;;;;;;;;;;;;;;;;;;5024574;28;19944;-64
2022/09/30 03:37:35;;;;;;;;;;;;;;;;;;5026319;28;19963;-64
2022/09/30 03:40:01;;;;;;;;;;;;;;;;;;5031096;28;20361;-64
2022/09/30 03:42:27;;;;;;;;;;;;;;;;;;5028924;28;20014;-65
2022/09/30 03:44:53;;;;;;;;;;;;;;;;;;5029644;28;19909;-64
2022/09/30 03:47:19;;;;;;;;;;;;;;;;;;5028157;28;19921;-64
2022/09/30 03:49:45;;;;;;;;;;;;;;;;;;5029244;28;19909;-64
2022/09/30 03:52:11;;;;;;;;;;;;;;;;;;5030200;28;19952;-64
2022/09/30 03:54:37;;;;;;;;;;;;;;;;;;5029940;28;19913;-64
2022/09/30 03:57:04;;;;;;;;;;;;;;;;;;5025965;28;19909;-64
2022/09/30 03:59:30;;;;;;;;;;;;;;;;;;5027427;28;20328;-64
2022/09/30 04:01:56;;;;;;;;;;;;;;;;;;5023687;28;19913;-65
2022/09/30 04:04:22;;;;;;;;;;;;;;;;;;5029378;28;19908;-64
2022/09/30 04:06:48;;;;;;;;;;;;;;;;;;5012451;28;19917;-64
2022/09/30 04:09:14;;;;;;;;;;;;;;;;;;5024262;28;19941;-65
2022/09/30 04:11:40;;;;;;;;;;;;;;;;;;5020072;28;20369;-64
2022/09/30 04:14:05;;;;;;;;;;;;;;;;;;5030960;28;20368;-64
2022/09/30 04:16:31;;;;;;;;;;;;;;;;;;5029764;28;20025;-64
2022/09/30 04:18:57;;;;;;;;;;;;;;;;;;5011612;28;19952;-65
2022/09/30 04:21:23;;;;;;;;;;;;;;;;;;5011365;28;20385;-64
2022/09/30 04:23:49;;;;;;;;;;;;;;;;;;5028168;28;20257;-64
2022/09/30 04:26:15;;;;;;;;;;;;;;;;;;5022930;28;20364;-64
2022/09/30 04:28:41;;;;;;;;;;;;;;;;;;5020130;28;19913;-64
2022/09/30 04:31:07;;;;;;;;;;;;;;;;;;5022465;28;19945;-64
2022/09/30 04:33:33;;;;;;;;;;;;;;;;;;5020503;28;20049;-64
2022/09/30 04:35:59;;;;;;;;;;;;;;;;;;5010796;28;19917;-64
2022/09/30 04:38:25;;;;;;;;;;;;;;;;;;5024670;28;20277;-64
2022/09/30 04:40:51;;;;;;;;;;;;;;;;;;5028627;28;20010;-64
2022/09/30 04:43:17;;;;;;;;;;;;;;;;;;5026263;28;19917;-64
2022/09/30 04:45:43;;;;;;;;;;;;;;;;;;5023281;28;19913;-64
2022/09/30 04:48:10;;;;;;;;;;;;;;;;;;5008401;28;19905;-64
2022/09/30 04:50:35;;;;;;;;;;;;;;;;;;5027746;28;19913;-64
2022/09/30 04:53:02;;;;;;;;;;;;;;;;;;5028589;28;19915;-64
2022/09/30 04:55:28;;;;;;;;;;;;;;;;;;5031064;28;19916;-64
2022/09/30 04:57:54;;;;;;;;;;;;;;;;;;5024616;28;20368;-64
2022/09/30 05:00:20;;;;;;;;;;;;;;;;;;5028295;28;19923;-64
2022/09/30 05:02:46;;;;;;;;;;;;;;;;;;5030880;28;20393;-64
2022/09/30 05:05:12;;;;;;;;;;;;;;;;;;5033603;28;19923;-64
2022/09/30 05:07:38;;;;;;;;;;;;;;;;;;5012618;28;19963;-64
2022/09/30 05:10:04;;;;;;;;;;;;;;;;;;5020467;28;19995;-65
2022/09/30 05:12:30;;;;;;;;;;;;;;;;;;5028797;28;19944;-64
2022/09/30 05:14:56;;;;;;;;;;;;;;;;;;5028223;28;19916;-64
2022/09/30 05:17:22;;;;;;;;;;;;;;;;;;5031244;28;19952;-64
2022/09/30 05:19:48;;;;;;;;;;;;;;;;;;5022736;28;19962;-65
2022/09/30 05:22:14;;;;;;;;;;;;;;;;;;5010499;28;19909;-64
2022/09/30 05:24:40;;;;;;;;;;;;;;;;;;5015990;28;19905;-64
2022/09/30 05:27:07;;;;;;;;;;;;;;;;;;5032074;28;19921;-64
2022/09/30 05:29:33;;;;;;;;;;;;;;;;;;5033270;28;20398;-64
2022/09/30 05:31:59;;;;;;;;;;;;;;;;;;5033287;28;19944;-65
2022/09/30 05:34:24;;;;;;;;;;;;;;;;;;5032129;28;19959;-64
2022/09/30 05:36:50;;;;;;;;;;;;;;;;;;5027265;28;19914;-64
2022/09/30 05:39:16;;;;;;;;;;;;;;;;;;5026945;28;20459;-65
2022/09/30 05:41:42;;;;;;;;;;;;;;;;;;5029850;28;19913;-64
2022/09/30 05:44:09;;;;;;;;;;;;;;;;;;5021327;28;19963;-64
2022/09/30 05:46:35;;;;;;;;;;;;;;;;;;5031689;28;20389;-64
2022/09/30 05:49:00;;;;;;;;;;;;;;;;;;5031185;28;19963;-64
2022/09/30 05:51:26;;;;;;;;;;;;;;;;;;5011772;28;19948;-64
2022/09/30 05:53:52;;;;;;;;;;;;;;;;;;5032379;28;19905;-64
2022/09/30 05:56:18;;;;;;;;;;;;;;;;;;5031351;28;19913;-64
2022/09/30 05:58:46;;;;;;;;;;;;;;;;;;5032038;28;19953;-64
2022/09/30 06:01:12;;;;;;;;;;;;;;;;;;5027887;28;19913;-64
2022/09/30 06:03:37;;;;;;;;;;;;;;;;;;5030253;28;20047;-64
2022/09/30 06:06:03;;;;;;;;;;;;;;;;;;5029801;28;19924;-65
2022/09/30 06:08:29;;;;;;;;;;;;;;;;;;4999667;28;19909;-64
2022/09/30 06:10:57;;;;;;;;;;;;;;;;;;5032677;28;19909;-64
2022/09/30 06:13:23;;;;;;;;;;;;;;;;;;5008573;28;19920;-64
2022/09/30 06:15:49;;;;;;;;;;;;;;;;;;5026328;28;19967;-64
2022/09/30 06:18:16;;;;;;;;;;;;;;;;;;5031745;28;19964;-64
2022/09/30 06:20:42;;;;;;;;;;;;;;;;;;5028848;28;19917;-64
2022/09/30 06:23:08;;;;;;;;;;;;;;;;;;5031732;28;19905;-64
2022/09/30 06:25:34;;;;;;;;;;;;;;;;;;5032601;28;20292;-64
2022/09/30 06:28:00;;;;;;;;;;;;;;;;;;5029681;28;19926;-64
2022/09/30 06:30:26;;;;;;;;;;;;;;;;;;5025191;28;19910;-64
2022/09/30 06:32:52;;;;;;;;;;;;;;;;;;5026120;28;19913;-64
2022/09/30 06:35:20;;;;;;;;;;;;;;;;;;5030697;28;19916;-64
2022/09/30 06:37:46;;;;;;;;;;;;;;;;;;5014097;28;19939;-65
2022/09/30 06:40:12;;;;;;;;;;;;;;;;;;5030435;28;19944;-63
2022/09/30 06:42:38;;;;;;;;;;;;;;;;;;5030430;28;19984;-64
2022/09/30 06:45:04;;;;;;;;;;;;;;;;;;5031365;28;19915;-64
2022/09/30 06:47:32;;;;;;;;;;;;;;;;;;5032336;28;20299;-64
2022/09/30 06:49:58;;;;;;;;;;;;;;;;;;5031635;28;20115;-64
2022/09/30 06:52:24;;;;;;;;;;;;;;;;;;5030700;28;20178;-64
2022/09/30 06:54:50;;;;;;;;;;;;;;;;;;5031421;28;19915;-64
2022/09/30 06:57:21;;;;;;;;;;;;;;;;;;5028972;28;19909;-64
2022/09/30 06:59:47;;;;;;;;;;;;;;;;;;5031373;28;19913;-65
2022/09/30 07:02:12;;;;;;;;;;;;;;;;;;5023815;28;19909;-64
2022/09/30 07:04:38;;;;;;;;;;;;;;;;;;5030206;28;19932;-64
2022/09/30 07:07:06;;;;;;;;;;;;;;;;;;5027435;28;19924;-64
2022/09/30 07:09:31;;;;;;;;;;;;;;;;;;5030194;28;19916;-64
2022/09/30 07:11:57;;;;;;;;;;;;;;;;;;5025329;28;20397;-64
2022/09/30 07:14:23;;;;;;;;;;;;;;;;;;5027504;28;19913;-64
2022/09/30 07:16:51;;;;;;;;;;;;;;;;;;5030896;28;19960;-64
2022/09/30 07:19:21;;;;;;;;;;;;;;;;;;5010191;28;20012;-64
2022/09/30 07:21:47;;;;;;;;;;;;;;;;;;5013775;28;19916;-64
2022/09/30 07:24:13;;;;;;;;;;;;;;;;;;5013340;28;19964;-65
2022/09/30 07:26:39;;;;;;;;;;;;;;;;;;5029030;28;19917;-64
2022/09/30 07:29:06;;;;;;;;;;;;;;;;;;5030884;28;20339;-65
2022/09/30 07:31:32;;;;;;;;;;;;;;;;;;5027946;28;19909;-65
2022/09/30 07:33:58;;;;;;;;;;;;;;;;;;5012762;28;19937;-65
2022/09/30 07:36:30;;;;;;;;;;;;;;;;;;5012052;28;19963;-65
2022/09/30 07:38:55;;;;;;;;;;;;;;;;;;5031116;28;19905;-65
2022/09/30 07:41:24;;;;;;;;;;;;;;;;;;5029549;28;19940;-66
2022/09/30 07:43:50;;;;;;;;;;;;;;;;;;5031495;28;19944;-65
2022/09/30 07:46:16;;;;;;;;;;;;;;;;;;5023661;28;19948;-65
2022/09/30 07:48:43;;;;;;;;;;;;;;;;;;5010223;28;20003;-65
2022/09/30 07:51:09;;;;;;;;;;;;;;;;;;5031160;28;19905;-65
2022/09/30 07:53:35;;;;;;;;;;;;;;;;;;5027824;28;19909;-65
2022/09/30 07:56:01;;;;;;;;;;;;;;;;;;5026792;28;20261;-65
2022/09/30 07:58:27;;;;;;;;;;;;;;;;;;5025588;28;19916;-65
2022/09/30 08:00:53;;;;;;;;;;;;;;;;;;5030704;28;20267;-65
2022/09/30 08:03:19;;;;;;;;;;;;;;;;;;5030861;28;19956;-65
2022/09/30 08:05:47;;;;;;;;;;;;;;;;;;5027826;28;19956;-65
2022/09/30 08:08:13;;;;;;;;;;;;;;;;;;5030934;28;19920;-66
2022/09/30 08:10:39;;;;;;;;;;;;;;;;;;5021716;28;19956;-66
2022/09/30 08:13:04;;;;;;;;;;;;;;;;;;5011238;28;20011;-66
2022/09/30 08:15:30;;;;;;;;;;;;;;;;;;5028457;28;19915;-66
2022/09/30 08:17:56;;;;;;;;;;;;;;;;;;5031349;28;19936;-66
2022/09/30 08:20:22;;;;;;;;;;;;;;;;;;5029940;28;19913;-65
2022/09/30 08:22:48;;;;;;;;;;;;;;;;;;5030997;28;20335;-65
2022/09/30 08:25:14;;;;;;;;;;;;;;;;;;5028886;28;19956;-66
2022/09/30 08:27:40;;;;;;;;;;;;;;;;;;5026360;28;20116;-66
2022/09/30 08:30:06;;;;;;;;;;;;;;;;;;5032246;28;19960;-65
2022/09/30 08:32:32;;;;;;;;;;;;;;;;;;5033928;28;20309;-66
2022/09/30 08:34:58;;;;;;;;;;;;;;;;;;5034165;28;20000;-65
2022/09/30 08:37:24;;;;;;;;;;;;;;;;;;5016510;28;19955;-66
2022/09/30 08:39:49;;;;;;;;;;;;;;;;;;5024706;28;19914;-65
2022/09/30 08:42:15;;;;;;;;;;;;;;;;;;5033223;28;19909;-65
2022/09/30 08:44:42;;;;;;;;;;;;;;;;;;5020423;28;19920;-65
2022/09/30 08:47:08;;;;;;;;;;;;;;;;;;5034011;28;19941;-66
2022/09/30 08:49:34;;;;;;;;;;;;;;;;;;5022919;28;20002;-65
2022/09/30 08:51:59;;;;;;;;;;;;;;;;;;5029191;28;19948;-65
2022/09/30 08:54:25;;;;;;;;;;;;;;;;;;5033787;28;20325;-65
2022/09/30 08:56:51;;;;;;;;;;;;;;;;;;5022493;28;20345;-65
2022/09/30 08:59:17;;;;;;;;;;;;;;;;;;5024778;28;19987;-65
2022/09/30 09:01:43;;;;;;;;;;;;;;;;;;5015168;28;19917;-65
2022/09/30 09:04:09;;;;;;;;;;;;;;;;;;5034168;28;19947;-65
2022/09/30 09:06:35;;;;;;;;;;;;;;;;;;5035586;28;19923;-65
2022/09/30 09:09:01;;;;;;;;;;;;;;;;;;5023386;28;19929;-65
2022/09/30 09:11:27;;;;;;;;;;;;;;;;;;5033081;28;19952;-65
2022/09/30 09:13:53;;;;;;;;;;;;;;;;;;5033791;28;19955;-66
2022/09/30 09:16:19;;;;;;;;;;;;;;;;;;5031582;28;19952;-66
2022/09/30 09:18:45;;;;;;;;;;;;;;;;;;5031247;28;20280;-65
2022/09/30 09:21:11;;;;;;;;;;;;;;;;;;5028603;28;19978;-66
2022/09/30 09:23:36;;;;;;;;;;;;;;;;;;5031930;28;19938;-64
2022/09/30 09:26:02;;;;;;;;;;;;;;;;;;5031068;28;19909;-65
2022/09/30 09:28:28;;;;;;;;;;;;;;;;;;5027370;28;19916;-65
2022/09/30 09:30:54;;;;;;;;;;;;;;;;;;5029277;28;19909;-65
2022/09/30 09:33:21;;;;;;;;;;;;;;;;;;5027837;28;20000;-66
2022/09/30 09:35:47;;;;;;;;;;;;;;;;;;5027402;28;19952;-65
2022/09/30 09:38:25;;;;;;;;;;;;;;;;;;5028926;28;19916;-65
2022/09/30 09:40:56;;;;;;;;;;;;;;;;;;5031938;28;19909;-65
2022/09/30 09:43:21;;;;;;;;;;;;;;;;;;5032602;28;20019;-65
2022/09/30 09:45:47;;;;;;;;;;;;;;;;;;5031817;28;20389;-64
2022/09/30 09:48:14;;;;;;;;;;;;;;;;;;5028160;28;19909;-65
2022/09/30 09:50:40;;;;;;;;;;;;;;;;;;5030490;28;19916;-65
2022/09/30 09:53:06;;;;;;;;;;;;;;;;;;5029376;28;19909;-65
2022/09/30 09:55:35;;;;;;;;;;;;;;;;;;5033200;28;19915;-66
2022/09/30 09:58:01;;;;;;;;;;;;;;;;;;5020390;28;19920;-65
2022/09/30 10:03:14;;;;;;;;;;;;;;;;;;5029327;28;20395;-65
2022/09/30 10:05:41;;;;;;;;;;;;;;;;;;5020353;28;20485;-65
2022/09/30 10:08:07;;;;;;;;;;;;;;;;;;5009524;28;20507;-65
2022/09/30 10:10:32;;;;;;;;;;;;;;;;;;5025803;28;19955;-65
2022/09/30 10:12:58;;;;;;;;;;;;;;;;;;5015430;28;19909;-65
2022/09/30 10:15:25;;;;;;;;;;;;;;;;;;5009982;28;20413;-66
2022/09/30 10:17:51;;;;;;;;;;;;;;;;;;5020595;28;19909;-65
2022/09/30 10:20:17;;;;;;;;;;;;;;;;;;5025302;28;19998;-65
2022/09/30 10:22:42;;;;;;;;;;;;;;;;;;5026078;28;20373;-65
2022/09/30 10:25:08;;;;;;;;;;;;;;;;;;5029299;28;19913;-65
2022/09/30 10:27:34;;;;;;;;;;;;;;;;;;5025331;28;20336;-65
2022/09/30 10:30:00;;;;;;;;;;;;;;;;;;5028850;28;19912;-66
2022/09/30 10:32:26;;;;;;;;;;;;;;;;;;5025784;28;19932;-64
2022/09/30 10:34:53;;;;;;;;;;;;;;;;;;5030621;28;19959;-65
2022/09/30 10:37:19;;;;;;;;;;;;;;;;;;5031738;28;20357;-66
2022/09/30 10:39:45;;;;;;;;;;;;;;;;;;5030523;28;19943;-65
2022/09/30 10:42:11;;;;;;;;;;;;;;;;;;5024156;28;19912;-65
2022/09/30 10:44:37;;;;;;;;;;;;;;;;;;5030802;28;19905;-66
2022/09/30 10:47:03;;;;;;;;;;;;;;;;;;5029668;28;20346;-66
2022/09/30 10:49:29;;;;;;;;;;;;;;;;;;5026617;28;19949;-66
2022/09/30 10:51:55;;;;;;;;;;;;;;;;;;5029101;28;19955;-66
2022/09/30 10:54:21;;;;;;;;;;;;;;;;;;5027542;28;19928;-65
2022/09/30 10:56:47;;;;;;;;;;;;;;;;;;5030448;28;19917;-66
2022/09/30 10:59:15;;;;;;;;;;;;;;;;;;5024861;28;19940;-66
2022/09/30 11:01:41;;;;;;;;;;;;;;;;;;5013191;28;19995;-66
2022/09/30 11:04:07;;;;;;;;;;;;;;;;;;5024669;28;19919;-66
2022/09/30 11:06:33;;;;;;;;;;;;;;;;;;5029971;28;20285;-66
2022/09/30 11:08:59;;;;;;;;;;;;;;;;;;5015623;28;19913;-66
2022/09/30 11:11:26;;;;;;;;;;;;;;;;;;5018727;28;19999;-66
2022/09/30 11:13:53;;;;;;;;;;;;;;;;;;5012740;28;20284;-66
2022/09/30 11:16:19;;;;;;;;;;;;;;;;;;5031243;28;19919;-65
2022/09/30 11:18:45;;;;;;;;;;;;;;;;;;5023048;28;19909;-65
2022/09/30 11:21:11;;;;;;;;;;;;;;;;;;5029230;28;19925;-65
2022/09/30 11:23:37;;;;;;;;;;;;;;;;;;5031948;28;19905;-65
2022/09/30 11:26:03;;;;;;;;;;;;;;;;;;5026447;28;20387;-65
2022/09/30 11:28:28;;;;;;;;;;;;;;;;;;5031062;28;19940;-65
2022/09/30 11:30:54;;;;;;;;;;;;;;;;;;5030550;28;19952;-65
2022/09/30 11:33:20;;;;;;;;;;;;;;;;;;5024262;28;20387;-65
2022/09/30 11:35:46;;;;;;;;;;;;;;;;;;5029499;28;19949;-65
2022/09/30 11:38:12;;;;;;;;;;;;;;;;;;5030494;28;20007;-65
2022/09/30 11:40:38;;;;;;;;;;;;;;;;;;5028311;28;19915;-65
2022/09/30 11:43:04;;;;;;;;;;;;;;;;;;5031163;28;20014;-65
2022/09/30 11:45:30;;;;;;;;;;;;;;;;;;5031650;28;20327;-65
2022/09/30 11:47:56;;;;;;;;;;;;;;;;;;5012929;28;20000;-65
2022/09/30 11:50:22;;;;;;;;;;;;;;;;;;5023395;28;19976;-66
2022/09/30 11:52:48;;;;;;;;;;;;;;;;;;5030984;28;20332;-66
2022/09/30 11:55:14;;;;;;;;;;;;;;;;;;5028580;28;19975;-65
2022/09/30 11:57:39;;;;;;;;;;;;;;;;;;5021091;28;20403;-66
2022/09/30 12:00:07;;;;;;;;;;;;;;;;;;5027827;28;19913;-66
2022/09/30 12:02:33;;;;;;;;;;;;;;;;;;5027270;28;19951;-65
2022/09/30 12:04:59;;;;;;;;;;;;;;;;;;5035082;28;19912;-65
2022/09/30 12:07:25;;;;;;;;;;;;;;;;;;5030825;28;20444;-65
2022/09/30 12:09:51;;;;;;;;;;;;;;;;;;5030407;28;19913;-65
2022/09/30 12:12:17;;;;;;;;;;;;;;;;;;5030538;28;19959;-66
2022/09/30 12:14:43;;;;;;;;;;;;;;;;;;5034431;28;19912;-66
2022/09/30 12:17:09;;;;;;;;;;;;;;;;;;5028515;28;19941;-66
2022/09/30 12:19:35;;;;;;;;;;;;;;;;;;5027723;28;19917;-65
2022/09/30 12:22:01;;;;;;;;;;;;;;;;;;5030377;28;19913;-66
2022/09/30 12:24:27;;;;;;;;;;;;;;;;;;5022510;28;19913;-66
2022/09/30 12:26:53;;;;;;;;;;;;;;;;;;5026027;28;19963;-66
2022/09/30 12:32:07;;;;;;;;;;;;;;;;;;5032012;28;20094;-66
2022/09/30 12:34:34;;;;;;;;;;;;;;;;;;5027055;28;20484;-66
2022/09/30 12:37:00;;;;;;;;;;;;;;;;;;5026035;28;20071;-66
2022/09/30 12:39:26;;;;;;;;;;;;;;;;;;5033830;28;20012;-64
2022/09/30 12:41:52;;;;;;;;;;;;;;;;;;5026964;28;19941;-66
2022/09/30 12:44:18;;;;;;;;;;;;;;;;;;5032625;28;19909;-65
2022/09/30 12:46:44;;;;;;;;;;;;;;;;;;5033404;28;19928;-66
2022/09/30 12:49:13;;;;;;;;;;;;;;;;;;5031749;28;20058;-63
2022/09/30 12:51:39;;;;;;;;;;;;;;;;;;5028119;28;19940;-64
2022/09/30 12:54:05;;;;;;;;;;;;;;;;;;5032736;28;20423;-64
2022/09/30 12:56:31;;;;;;;;;;;;;;;;;;5029240;28;19956;-64
2022/09/30 12:58:59;;;;;;;;;;;;;;;;;;5033987;28;19915;-64
2022/09/30 13:01:25;;;;;;;;;;;;;;;;;;5022234;28;19932;-64
2022/09/30 13:03:51;;;;;;;;;;;;;;;;;;5033283;28;20356;-64
2022/09/30 13:06:17;;;;;;;;;;;;;;;;;;5021014;28;20536;-64
2022/09/30 13:08:43;;;;;;;;;;;;;;;;;;5025890;28;19968;-64
2022/09/30 13:11:10;;;;;;;;;;;;;;;;;;5031854;28;19916;-63
2022/09/30 13:13:36;;;;;;;;;;;;;;;;;;5029777;28;20328;-64
2022/09/30 13:16:02;;;;;;;;;;;;;;;;;;5031400;28;20368;-64
2022/09/30 13:18:28;;;;;;;;;;;;;;;;;;5011862;28;20002;-64
2022/09/30 13:20:55;;;;;;;;;;;;;;;;;;5033276;28;19924;-64
2022/09/30 13:23:21;;;;;;;;;;;;;;;;;;5031853;28;19917;-64
2022/09/30 13:25:48;;;;;;;;;;;;;;;;;;5026746;28;20010;-64
2022/09/30 13:28:14;;;;;;;;;;;;;;;;;;5032163;28;19921;-64
2022/09/30 13:30:40;;;;;;;;;;;;;;;;;;5032447;28;19909;-64
2022/09/30 13:33:06;;;;;;;;;;;;;;;;;;5030899;28;20279;-63
2022/09/30 13:35:32;;;;;;;;;;;;;;;;;;5031711;28;20006;-64
2022/09/30 13:37:57;;;;;;;;;;;;;;;;;;5020937;28;20353;-64
2022/09/30 13:40:23;;;;;;;;;;;;;;;;;;5026087;28;20056;-63
2022/09/30 13:42:49;;;;;;;;;;;;;;;;;;5014782;28;19909;-64
2022/09/30 13:45:15;;;;;;;;;;;;;;;;;;5031086;28;20368;-64
2022/09/30 13:47:41;;;;;;;;;;;;;;;;;;5025974;28;19963;-63
2022/09/30 13:50:07;;;;;;;;;;;;;;;;;;5028595;28;19908;-63
2022/09/30 13:52:33;;;;;;;;;;;;;;;;;;5032718;28;19909;-65
2022/09/30 13:54:59;;;;;;;;;;;;;;;;;;5031900;28;20003;-66
2022/09/30 13:57:25;;;;;;;;;;;;;;;;;;5024976;28;20214;-66
2022/09/30 13:59:51;;;;;;;;;;;;;;;;;;5031565;28;19936;-66
2022/09/30 14:02:17;;;;;;;;;;;;;;;;;;5031339;28;20383;-65
2022/09/30 14:04:46;;;;;;;;;;;;;;;;;;5031081;28;19913;-64
2022/09/30 14:07:13;;;;;;;;;;;;;;;;;;5030731;28;20380;-63
2022/09/30 14:09:38;;;;;;;;;;;;;;;;;;5027893;28;19932;-63
2022/09/30 14:12:05;;;;;;;;;;;;;;;;;;5025409;28;19912;-64
2022/09/30 14:14:31;;;;;;;;;;;;;;;;;;5029554;28;21059;-63
2022/09/30 14:16:57;;;;;;;;;;;;;;;;;;5028769;28;19915;-63
2022/09/30 14:19:23;;;;;;;;;;;;;;;;;;5013718;28;19916;-63
2022/09/30 14:21:49;;;;;;;;;;;;;;;;;;5027233;28;19959;-63
2022/09/30 14:24:16;;;;;;;;;;;;;;;;;;5010749;28;19909;-63
2022/09/30 14:26:42;;;;;;;;;;;;;;;;;;5018079;28;19924;-64
2022/09/30 14:29:08;;;;;;;;;;;;;;;;;;5023686;28;20352;-64
2022/09/30 14:31:34;;;;;;;;;;;;;;;;;;5021816;28;19952;-64
2022/09/30 14:34:00;;;;;;;;;;;;;;;;;;5025174;28;19963;-63
2022/09/30 14:36:26;;;;;;;;;;;;;;;;;;5029670;28;19910;-64
2022/09/30 14:38:52;;;;;;;;;;;;;;;;;;5027507;28;20506;-63
2022/09/30 14:41:19;;;;;;;;;;;;;;;;;;5024799;28;19913;-63
2022/09/30 14:43:45;;;;;;;;;;;;;;;;;;5029209;28;20391;-63
2022/09/30 14:46:12;;;;;;;;;;;;;;;;;;5026519;28;19909;-65
2022/09/30 14:48:41;;;;;;;;;;;;;;;;;;5028174;28;20356;-65
2022/09/30 14:51:06;;;;;;;;;;;;;;;;;;5023690;28;20349;-68
2022/09/30 14:53:32;;;;;;;;;;;;;;;;;;5024691;28;20022;-66
2022/09/30 14:55:58;;;;;;;;;;;;;;;;;;5023258;28;19960;-66
2022/09/30 14:58:28;;;;;;;;;;;;;;;;;;5028662;28;19945;-65
2022/09/30 15:00:53;;;;;;;;;;;;;;;;;;5021661;28;20000;-65
2022/09/30 15:03:20;;;;;;;;;;;;;;;;;;5029145;28;20452;-64
2022/09/30 15:05:46;;;;;;;;;;;;;;;;;;5029979;28;19913;-65
2022/09/30 15:08:12;;;;;;;;;;;;;;;;;;5028343;28;20273;-65
2022/09/30 15:10:38;;;;;;;;;;;;;;;;;;5024521;28;19959;-65
2022/09/30 15:13:05;;;;;;;;;;;;;;;;;;5031537;28;19948;-65
2022/09/30 15:15:30;;;;;;;;;;;;;;;;;;5026175;28;19916;-64
2022/09/30 15:17:56;;;;;;;;;;;;;;;;;;5028885;28;19917;-66
2022/09/30 15:20:22;;;;;;;;;;;;;;;;;;5022170;28;20425;-66
2022/09/30 15:22:48;;;;;;;;;;;;;;;;;;5026260;28;19948;-65
2022/09/30 15:25:15;;;;;;;;;;;;;;;;;;5030573;28;19959;-64
2022/09/30 15:27:41;;;;;;;;;;;;;;;;;;5020081;28;19920;-64
2022/09/30 15:30:06;;;;;;;;;;;;;;;;;;5005844;28;19975;-65
2022/09/30 15:32:32;;;;;;;;;;;;;;;;;;5025118;28;20002;-65
2022/09/30 15:34:58;;;;;;;;;;;;;;;;;;5028983;28;19909;-65
2022/09/30 15:37:25;;;;;;;;;;;;;;;;;;5030895;28;20262;-65
2022/09/30 15:42:35;;;;;;;;;;;;;;;;;;5020538;28;19937;-65
2022/09/30 15:45:01;;;;;;;;;;;;;;;;;;5028662;28;19968;-65
2022/09/30 15:47:27;;;;;;;;;;;;;;;;;;5025782;28;19964;-64
2022/09/30 15:49:54;;;;;;;;;;;;;;;;;;5017615;28;19948;-64
2022/09/30 15:52:20;;;;;;;;;;;;;;;;;;5025710;28;20323;-64
2022/09/30 15:54:46;;;;;;;;;;;;;;;;;;5025790;28;19995;-65
2022/09/30 15:57:11;;;;;;;;;;;;;;;;;;5030962;28;19928;-65
2022/09/30 15:59:38;;;;;;;;;;;;;;;;;;5030712;28;19960;-65
2022/09/30 16:02:04;;;;;;;;;;;;;;;;;;5031131;28;20495;-64
2022/09/30 16:04:30;;;;;;;;;;;;;;;;;;5030540;28;19919;-64
2022/09/30 16:06:56;;;;;;;;;;;;;;;;;;5031269;28;19909;-64
2022/09/30 16:09:22;;;;;;;;;;;;;;;;;;5013254;28;20396;-64
2022/09/30 16:11:52;;;;;;;;;;;;;;;;;;5012702;28;20011;-64
2022/09/30 16:14:18;;;;;;;;;;;;;;;;;;5024866;28;20357;-64
2022/09/30 16:16:44;;;;;;;;;;;;;;;;;;5030330;28;19917;-64
2022/09/30 16:19:10;;;;;;;;;;;;;;;;;;5028481;28;19991;-64
2022/09/30 16:21:42;;;;;;;;;;;;;;;;;;5023676;28;19920;-64
2022/09/30 16:24:08;;;;;;;;;;;;;;;;;;5029308;28;19931;-64
2022/09/30 16:26:34;;;;;;;;;;;;;;;;;;5030082;28;19921;-64
2022/09/30 16:29:02;;;;;;;;;;;;;;;;;;5023718;28;19909;-64
2022/09/30 16:31:29;;;;;;;;;;;;;;;;;;5025410;28;19963;-64
2022/09/30 16:33:55;;;;;;;;;;;;;;;;;;5031149;28;19909;-64
2022/09/30 16:36:21;;;;;;;;;;;;;;;;;;5029121;28;19936;-64
2022/09/30 16:38:47;;;;;;;;;;;;;;;;;;5030272;28;20651;-63
2022/09/30 16:41:12;;;;;;;;;;;;;;;;;;5021883;28;19911;-64
2022/09/30 16:43:38;;;;;;;;;;;;;;;;;;5017336;28;19913;-64
2022/09/30 16:46:04;;;;;;;;;;;;;;;;;;5027671;28;19945;-64